Terminal Aerodrome Forecast
Issued by NWS

Home | Current Version | Previous Version | Text Only | Print | Product List | Glossary On
Versions: 1 2 3 4 5 6 7 8 9 10 11 12 13 14 15 16 17 18
000
FTUS43 KAPX 271727 AAE
TAFMBL
TAF AMD
KMBL 271727Z 2717/2818 23015G25KT P6SM VCSH OVC010
      TEMPO 2718/2720 2SM -RA BR OVC008
     FM272100 23012G25KT P6SM OVC020
     FM280200 24012KT P6SM OVC035
     FM280600 24010KT P6SM BKN035
     FM281200 24010G15KT P6SM SCT045=

USA.gov is the U.S. government's official web portal to all federal, state and local government web resources and services.